Nashville, TN (JWN)

Redbird FMX

Given the close proximity to downtown Nashville, Tennessee, John Tune (JWN) is a great place for the general aviation enthusiast or for someone learning how to fly. Wings of Eagles Aviation’s office is located in Hangar 1, and is accessible from the road or the ramp. The FBO is open 24 hours a day 7 days a week so there will always be someone available for help or fuel.

210 Tune Airport Dr.
Nashville, TN 37209

Phone: (615) 979-9222

Business Hours:
Monday-Sunday 7a-10p

NOAA Weather

Nashville, Nashville International Airport, TN

Last Updated on Nov 28 2015, 10:53 am CST

Current Conditions: Overcast


Temp: 63°F

Wind: South at 8mph

Humidity: 84%

Windchill: 63°F

Your 5-Day Forecast at a Glance

Available data for KBNA from the past hour


  • KBNA 281613Z 2816/2912 19008KT P6SM -RA OVC080 TEMPO 2817/2821 4SM -RA BR BKN040 FM290300 20003KT 4SM -RA BR OVC007 FM290900 13003KT 4SM -RA BR OVC003